Time;durP1;ratioP1;P1;durP2;ratioP2;P2;SDS_P1;SDS_P2;PMS_P1;PMS_P2;Temp;Humidity;BMP_temperature;BMP_pressure;BME280_temperature;BME280_humidity;BME280_pressure;Samples;Min_cycle;Max_cycle;Signal;HPM_P1;HPM_P2
2024/03/24 00:04:35;;;;;;;0.00;0.00;;;;;;;3.57;79.70;100019.00;15243218;28;20144;-51
2024/03/24 00:12:11;;;;;;;0.00;0.00;;;;;;;3.36;80.15;100009.13;15243523;28;20444;-51
2024/03/24 00:19:46;;;;;;;0.00;0.00;;;;;;;4.05;78.31;99996.34;15242038;28;20040;-48
2024/03/24 00:27:22;;;;;;;0.00;0.00;;;;;;;3.77;77.97;99980.28;15304777;28;20040;-46
2024/03/24 00:34:57;;;;;;;0.20;0.20;;;;;;;3.50;78.96;99975.66;15332435;28;20059;-54
2024/03/24 00:42:32;;;;;;;2.08;0.52;;;;;;;3.12;79.80;99977.50;15241589;28;20036;-53
2024/03/24 00:50:09;;;;;;;0.05;0.05;;;;;;;2.95;80.66;99976.84;15306447;28;20052;-49
2024/03/24 00:57:45;;;;;;;0.00;0.00;;;;;;;3.49;77.95;99973.97;15241193;28;20072;-53
2024/03/24 01:05:21;;;;;;;0.08;0.08;;;;;;;2.98;79.38;99957.91;15240654;28;20056;-50
2024/03/24 01:12:56;;;;;;;0.45;0.22;;;;;;;3.11;78.77;99944.88;15238569;28;20530;-49
2024/03/24 01:20:33;;;;;;;0.00;0.00;;;;;;;3.38;78.27;99926.69;15239173;28;20082;-48
2024/03/24 01:28:10;;;;;;;0.57;0.40;;;;;;;2.81;79.67;99923.63;15238145;28;20056;-49
2024/03/24 01:35:47;;;;;;;0.52;0.52;;;;;;;2.60;81.02;99915.53;15326131;28;20064;-48
2024/03/24 01:43:22;;;;;;;0.00;0.00;;;;;;;2.90;80.04;99907.66;15238947;28;20050;-51
2024/03/24 01:50:57;;;;;;;0.10;0.10;;;;;;;2.62;81.10;99910.06;15239098;28;20052;-51
2024/03/24 01:58:35;;;;;;;0.00;0.00;;;;;;;2.80;80.35;99892.03;15317672;28;20442;-51
2024/03/24 02:06:10;;;;;;;0.00;0.00;;;;;;;2.94;80.10;99883.25;15237566;28;20048;-50
2024/03/24 02:13:47;;;;;;;0.00;0.00;;;;;;;2.61;81.24;99876.63;15238129;28;20094;-49
2024/03/24 02:21:22;;;;;;;0.10;0.10;;;;;;;2.70;82.20;99868.41;15239274;28;20052;-48
2024/03/24 02:28:57;;;;;;;0.00;0.00;;;;;;;2.84;80.56;99864.13;15238616;28;20380;-50
2024/03/24 02:36:31;;;;;;;0.30;0.30;;;;;;;2.93;80.20;99860.38;15265301;28;20044;-49
2024/03/24 02:44:08;;;;;;;0.00;0.00;;;;;;;2.92;80.10;99856.09;15245663;29;20087;-51
2024/03/24 02:51:43;;;;;;;0.00;0.00;;;;;;;3.14;80.02;99849.06;15246095;28;20456;-49
2024/03/24 02:59:18;;;;;;;0.10;0.10;;;;;;;3.23;78.92;99850.63;15245632;28;20127;-51
2024/03/24 03:06:54;;;;;;;0.00;0.00;;;;;;;2.90;79.25;99836.91;15246206;28;20063;-48
2024/03/24 03:14:32;;;;;;;0.08;0.08;;;;;;;2.95;79.51;99831.88;15245059;28;20366;-50
2024/03/24 03:22:07;;;;;;;0.45;0.30;;;;;;;2.91;78.98;99827.94;15310082;28;20052;-50
2024/03/24 03:29:43;;;;;;;0.03;0.03;;;;;;;2.67;80.48;99807.03;15307881;28;20466;-51
2024/03/24 03:37:17;;;;;;;0.10;0.10;;;;;;;2.85;79.38;99812.78;15271997;28;20052;-49
2024/03/24 03:44:55;;;;;;;0.00;0.00;;;;;;;2.69;79.63;99802.34;15308613;28;20076;-51
2024/03/24 03:52:31;;;;;;;0.20;0.20;;;;;;;2.48;81.41;99797.78;15242112;28;20078;-48
2024/03/24 04:00:10;;;;;;;0.00;0.00;;;;;;;2.48;80.94;99790.66;15242711;28;20052;-49
2024/03/24 04:07:46;;;;;;;0.00;0.00;;;;;;;2.65;79.87;99786.00;15243118;28;20124;-49
2024/03/24 04:15:22;;;;;;;0.55;0.55;;;;;;;2.72;79.42;99772.84;15242298;28;20046;-49
2024/03/24 04:22:59;;;;;;;0.00;0.00;;;;;;;2.75;79.35;99777.78;15366409;22;20115;-54
2024/03/24 04:30:36;;;;;;;0.00;0.00;;;;;;;2.86;79.58;99768.56;15604783;28;20369;-44
2024/03/24 04:38:10;;;;;;;0.10;0.10;;;;;;;2.88;79.33;99772.66;15604571;28;20045;-45
2024/03/24 04:45:47;;;;;;;0.00;0.00;;;;;;;2.77;79.28;99765.19;15604622;28;20099;-45
2024/03/24 04:53:24;;;;;;;0.00;0.00;;;;;;;2.46;80.12;99763.50;15603940;28;20049;-45
2024/03/24 05:01:01;;;;;;;0.00;0.00;;;;;;;2.60;80.65;99766.34;15603635;28;20077;-48
2024/03/24 05:08:38;;;;;;;0.05;0.05;;;;;;;2.75;79.94;99761.88;15604183;28;20049;-47
2024/03/24 05:16:15;;;;;;;0.10;0.10;;;;;;;2.52;79.44;99757.50;15602502;28;20045;-49
2024/03/24 05:23:49;;;;;;;0.00;0.00;;;;;;;2.55;78.91;99761.59;15604120;28;20149;-44
2024/03/24 05:31:25;;;;;;;0.05;0.05;;;;;;;2.62;79.52;99764.38;15601774;28;20084;-46
2024/03/24 05:38:59;;;;;;;0.20;0.20;;;;;;;2.75;78.48;99761.88;15601323;28;20133;-45
2024/03/24 05:46:46;;;;;;;0.00;0.00;;;;;;;2.78;78.39;99745.63;15594643;28;20104;-45
2024/03/24 05:54:29;;;;;;;0.00;0.00;;;;;;;2.76;78.92;99747.63;15603640;28;20041;-49
2024/03/24 06:02:05;;;;;;;0.00;0.00;;;;;;;2.88;78.42;99732.06;15602639;28;20056;-49
2024/03/24 06:09:39;;;;;;;0.00;0.00;;;;;;;3.44;77.22;99735.78;15602932;28;20575;-48
2024/03/24 06:17:14;;;;;;;0.00;0.00;;;;;;;3.55;76.95;99732.63;15611198;28;20084;-49
2024/03/24 06:24:55;;;;;;;0.20;0.20;;;;;;;3.81;75.73;99718.78;15613585;28;20046;-45
2024/03/24 06:32:31;;;;;;;0.00;0.00;;;;;;;4.09;75.35;99716.13;15613250;28;20446;-48
2024/03/24 06:40:08;;;;;;;0.00;0.00;;;;;;;4.64;73.87;99720.78;15613681;28;20444;-48
2024/03/24 06:47:45;;;;;;;0.00;0.00;;;;;;;4.98;71.17;99712.72;15613259;28;20053;-45
2024/03/24 06:55:19;;;;;;;0.10;0.10;;;;;;;4.97;71.02;99705.78;15612129;28;20077;-47
2024/03/24 07:02:54;;;;;;;0.00;0.00;;;;;;;5.14;70.56;99714.22;15610845;28;20057;-46
2024/03/24 07:10:30;;;;;;;0.00;0.00;;;;;;;5.81;68.63;99707.97;15608184;28;20053;-47
2024/03/24 07:18:06;;;;;;;3.90;1.77;;;;;;;6.50;66.61;99706.72;15611585;28;20041;-47
2024/03/24 07:25:41;;;;;;;0.00;0.00;;;;;;;6.79;64.32;99702.72;15607477;28;20462;-50
2024/03/24 07:33:17;;;;;;;0.00;0.00;;;;;;;7.47;62.50;99701.38;15610985;28;20131;-48
2024/03/24 07:40:51;;;;;;;0.00;0.00;;;;;;;8.26;61.86;99681.19;15609350;28;20490;-45
2024/03/24 07:48:27;;;;;;;0.00;0.00;;;;;;;8.64;59.12;99683.69;15610050;28;20041;-47
2024/03/24 07:56:03;;;;;;;0.00;0.00;;;;;;;9.07;58.53;99672.03;15609318;28;20528;-48
2024/03/24 08:03:38;;;;;;;0.00;0.00;;;;;;;9.29;57.52;99662.47;15609572;28;20495;-47
2024/03/24 08:11:12;;;;;;;0.43;0.43;;;;;;;9.77;55.06;99666.06;15608905;28;20038;-44
2024/03/24 08:18:47;;;;;;;0.00;0.00;;;;;;;9.60;54.88;99656.00;15608674;28;20037;-49
2024/03/24 08:26:20;;;;;;;0.00;0.00;;;;;;;9.11;56.58;99655.31;15608774;28;20050;-46
2024/03/24 08:33:58;;;;;;;0.28;0.20;;;;;;;9.09;55.65;99652.06;15610951;28;20136;-45
2024/03/24 08:41:32;;;;;;;0.00;0.00;;;;;;;9.78;54.54;99651.63;15609224;28;20045;-50
2024/03/24 08:49:07;;;;;;;0.03;0.03;;;;;;;9.95;56.03;99645.34;15609093;28;20088;-47
2024/03/24 08:56:41;;;;;;;0.00;0.00;;;;;;;8.96;57.12;99636.16;15609217;28;20053;-45
2024/03/24 09:04:17;;;;;;;0.10;0.10;;;;;;;8.00;59.94;99640.31;15605399;28;20100;-45
2024/03/24 09:11:52;;;;;;;0.00;0.00;;;;;;;7.31;63.94;99635.94;15597009;28;20368;-49
2024/03/24 09:19:29;;;;;;;0.00;0.00;;;;;;;6.94;63.19;99638.44;15596124;28;20072;-48
2024/03/24 09:27:06;;;;;;;0.47;0.47;;;;;;;7.35;63.26;99629.16;15598924;28;20045;-47
2024/03/24 09:34:42;;;;;;;0.00;0.00;;;;;;;7.20;62.70;99618.78;15605131;28;20447;-45
2024/03/24 09:42:19;;;;;;;0.05;0.05;;;;;;;7.11;63.72;99622.75;15620912;28;20053;-48
2024/03/24 09:49:56;;;;;;;0.00;0.00;;;;;;;6.37;68.46;99642.78;15608876;28;20049;-47
2024/03/24 09:57:35;;;;;;;0.00;0.00;;;;;;;6.12;73.70;99639.97;15616145;28;20045;-47
2024/03/24 10:05:12;;;;;;;0.00;0.00;;;;;;;5.91;75.90;99642.84;15613207;28;20349;-51
2024/03/24 10:12:53;;;;;;;0.00;0.00;;;;;;;6.09;76.51;99630.53;15613623;28;20145;-48
2024/03/24 10:20:29;;;;;;;0.00;0.00;;;;;;;5.86;76.63;99624.81;15614656;28;20049;-46
2024/03/24 10:28:04;;;;;;;0.00;0.00;;;;;;;6.03;78.05;99620.72;15507137;22;20070;-54
2024/03/24 10:35:39;;;;;;;0.00;0.00;;;;;;;5.66;76.96;99613.38;15485990;28;20118;-53
2024/03/24 10:43:13;;;;;;;0.00;0.00;;;;;;;5.88;78.53;99604.97;15488680;28;20046;-52
2024/03/24 10:50:53;;;;;;;0.00;0.00;;;;;;;5.95;77.44;99596.97;15492215;28;20105;-56
2024/03/24 10:58:28;;;;;;;0.20;0.20;;;;;;;6.06;78.28;99596.34;15491118;28;20399;-51
2024/03/24 11:06:07;;;;;;;0.05;0.05;;;;;;;6.18;78.17;99593.84;15496489;28;20057;-52
2024/03/24 11:13:42;;;;;;;0.00;0.00;;;;;;;6.16;79.27;99589.78;15496567;28;20142;-54
2024/03/24 11:21:31;;;;;;;0.00;0.00;;;;;;;5.83;81.11;99595.97;15430187;28;1121699;-53
2024/03/24 11:29:04;;;;;;;0.10;0.10;;;;;;;5.69;81.09;99589.00;15494289;28;20050;-51
2024/03/24 11:36:41;;;;;;;0.00;0.00;;;;;;;5.85;80.52;99588.56;15497149;28;20038;-52
2024/03/24 11:44:15;;;;;;;0.00;0.00;;;;;;;6.13;80.48;99573.16;15489057;28;20054;-55
2024/03/24 11:51:51;;;;;;;0.30;0.22;;;;;;;6.06;79.78;99569.72;15504562;28;20042;-53
2024/03/24 11:59:25;;;;;;;0.00;0.00;;;;;;;5.78;80.33;99563.78;15494879;28;20042;-52
2024/03/24 12:07:00;;;;;;;0.00;0.00;;;;;;;6.39;79.10;99555.44;15485354;28;20049;-52
2024/03/24 12:14:36;;;;;;;0.85;0.75;;;;;;;7.09;77.76;99545.59;15498104;28;20144;-56
2024/03/24 12:22:11;;;;;;;0.20;0.20;;;;;;;7.09;75.86;99545.59;15488792;28;20430;-52
2024/03/24 12:29:52;;;;;;;0.43;0.25;;;;;;;6.85;76.92;99539.19;15497129;28;20040;-52
2024/03/24 12:37:27;;;;;;;0.10;0.10;;;;;;;7.52;75.46;99533.31;15491292;28;20380;-54
2024/03/24 12:45:09;;;;;;;0.00;0.00;;;;;;;7.64;74.40;99527.03;15493028;28;20089;-50
2024/03/24 12:52:45;;;;;;;0.82;0.30;;;;;;;7.32;75.17;99512.97;15486392;28;20093;-54
2024/03/24 13:00:21;;;;;;;0.00;0.00;;;;;;;7.18;73.77;99518.63;15473587;28;20122;-51
2024/03/24 13:07:57;;;;;;;22.27;1.90;;;;;;;7.35;74.26;99515.19;15481330;28;20108;-54
2024/03/24 13:15:35;;;;;;;0.00;0.00;;;;;;;7.50;71.99;99512.16;15471911;28;20047;-52
2024/03/24 13:23:15;;;;;;;0.00;0.00;;;;;;;7.54;71.61;99508.03;15487189;28;20109;-54
2024/03/24 13:30:49;;;;;;;0.00;0.00;;;;;;;7.19;74.37;99512.28;15469829;28;20046;-54
2024/03/24 13:38:39;;;;;;;0.00;0.00;;;;;;;7.30;74.20;99515.03;15470329;28;20554;-53
2024/03/24 13:46:19;;;;;;;0.03;0.03;;;;;;;7.24;72.99;99509.75;15453093;28;20102;-53
2024/03/24 13:53:56;;;;;;;0.00;0.00;;;;;;;7.33;73.74;99503.09;15471779;28;20046;-55
2024/03/24 14:01:30;;;;;;;0.28;0.28;;;;;;;8.23;71.27;99483.81;15479530;28;20093;-55
2024/03/24 14:09:09;;;;;;;0.00;0.00;;;;;;;7.95;69.93;99484.38;15474570;28;20046;-54
2024/03/24 14:16:54;;;;;;;0.43;0.32;;;;;;;8.78;67.38;99475.69;15465636;28;20049;-54
2024/03/24 14:24:36;;;;;;;0.32;0.22;;;;;;;8.60;69.02;99474.69;15480138;28;20073;-54
2024/03/24 14:32:09;;;;;;;0.00;0.00;;;;;;;8.45;66.51;99468.16;15464874;28;20130;-52
2024/03/24 14:40:10;;;;;;;0.00;0.00;;;;;;;8.83;65.01;99449.03;15496533;28;20559;-52
2024/03/24 14:47:46;;;;;;;0.00;0.00;;;;;;;9.10;63.09;99444.88;15475794;28;20049;-52
2024/03/24 14:55:24;;;;;;;0.00;0.00;;;;;;;8.59;64.79;99440.16;15467718;28;20101;-53
2024/03/24 15:02:59;;;;;;;0.17;0.17;;;;;;;8.87;64.33;99434.16;15486899;28;20043;-54
2024/03/24 15:10:34;;;;;;;2.08;0.45;;;;;;;8.26;64.45;99428.06;15482868;28;20061;-51
2024/03/24 15:18:13;;;;;;;0.38;0.38;;;;;;;8.22;65.07;99423.41;15467580;28;20137;-50
2024/03/24 15:25:50;;;;;;;0.00;0.00;;;;;;;8.58;64.32;99412.59;15466111;28;20047;-55
2024/03/24 15:33:24;;;;;;;0.00;0.00;;;;;;;8.40;64.10;99407.31;15478402;28;20050;-52
2024/03/24 15:40:59;;;;;;;0.00;0.00;;;;;;;8.67;63.41;99397.84;15497744;28;20411;-52
2024/03/24 15:48:35;;;;;;;0.00;0.00;;;;;;;8.38;63.20;99388.81;15482366;28;20367;-54
2024/03/24 15:56:19;;;;;;;0.00;0.00;;;;;;;8.59;64.16;99386.66;15463726;28;20121;-53
2024/03/24 16:03:53;;;;;;;0.00;0.00;;;;;;;8.36;65.12;99385.56;15473449;28;20050;-52
2024/03/24 16:11:28;;;;;;;0.00;0.00;;;;;;;8.33;64.36;99380.63;15493498;28;20043;-54
2024/03/24 16:19:03;;;;;;;0.00;0.00;;;;;;;8.15;64.30;99370.81;15496700;28;20054;-54
2024/03/24 16:26:38;;;;;;;0.10;0.10;;;;;;;8.41;62.67;99375.00;15423127;23;20097;-50
2024/03/24 16:34:13;;;;;;;0.00;0.00;;;;;;;8.42;62.22;99378.50;15412099;28;20124;-50
2024/03/24 16:41:49;;;;;;;0.00;0.00;;;;;;;8.18;67.40;99405.13;15301738;28;20071;-50
2024/03/24 16:49:24;;;;;;;0.10;0.10;;;;;;;7.31;75.08;99404.56;15383820;28;20095;-49
2024/03/24 16:56:59;;;;;;;0.55;0.55;;;;;;;7.18;76.31;99417.22;15299726;28;20071;-51
2024/03/24 17:04:33;;;;;;;0.00;0.00;;;;;;;6.85;78.29;99405.84;15313422;28;20055;-51
2024/03/24 17:12:10;;;;;;;0.00;0.00;;;;;;;6.52;77.74;99399.94;15322517;28;20079;-50
2024/03/24 17:19:43;;;;;;;0.00;0.00;;;;;;;5.99;78.93;99409.09;15332003;28;20036;-51
2024/03/24 17:27:19;;;;;;;0.00;0.00;;;;;;;5.96;79.49;99393.53;15304740;28;20101;-49
2024/03/24 17:34:53;;;;;;;0.00;0.00;;;;;;;6.03;79.27;99390.84;15338332;28;20051;-49
2024/03/24 17:42:29;;;;;;;0.10;0.10;;;;;;;6.38;77.50;99388.56;15296348;28;20093;-50
2024/03/24 17:50:03;;;;;;;0.00;0.00;;;;;;;6.06;78.92;99390.41;15297148;28;20141;-54
2024/03/24 17:57:38;;;;;;;0.00;0.00;;;;;;;6.11;80.08;99388.75;15297388;28;20320;-49
2024/03/24 18:05:12;;;;;;;0.00;0.00;;;;;;;5.72;80.97;99376.41;15295947;28;20048;-49
2024/03/24 18:12:48;;;;;;;0.30;0.30;;;;;;;5.88;79.99;99380.47;15302864;28;20160;-50
2024/03/24 18:20:21;;;;;;;0.05;0.05;;;;;;;5.84;80.26;99373.91;15307136;28;20048;-52
2024/03/24 18:28:00;;;;;;;0.00;0.00;;;;;;;6.06;79.95;99375.25;15347770;28;20162;-51
2024/03/24 18:35:34;;;;;;;0.00;0.00;;;;;;;5.74;80.28;99378.88;15340098;28;20055;-51
2024/03/24 18:43:10;;;;;;;0.00;0.00;;;;;;;5.61;80.14;99369.13;15304614;28;20047;-49
2024/03/24 18:50:45;;;;;;;0.65;0.43;;;;;;;5.67;80.46;99378.91;15304975;28;20071;-48
2024/03/24 18:58:21;;;;;;;0.25;0.25;;;;;;;5.89;79.38;99368.75;15304735;28;20048;-51
2024/03/24 19:05:54;;;;;;;0.00;0.00;;;;;;;5.67;80.13;99362.94;15304941;28;20051;-50
2024/03/24 19:13:29;;;;;;;0.03;0.03;;;;;;;5.91;79.65;99363.22;15302755;28;20051;-50
2024/03/24 19:21:04;;;;;;;0.00;0.00;;;;;;;5.83;79.11;99345.66;15303966;28;20102;-50
2024/03/24 19:28:39;;;;;;;0.00;0.00;;;;;;;5.71;80.23;99358.81;15302016;28;20043;-49
2024/03/24 19:36:13;;;;;;;0.00;0.00;;;;;;;5.92;79.15;99344.38;15332425;28;20052;-49
2024/03/24 19:43:49;;;;;;;0.00;0.00;;;;;;;5.92;79.03;99336.41;15316709;28;20056;-49
2024/03/24 19:51:22;;;;;;;0.00;0.00;;;;;;;6.03;79.00;99335.72;15291679;28;20056;-48
2024/03/24 19:58:58;;;;;;;0.00;0.00;;;;;;;5.91;78.72;99350.72;15292470;28;20073;-51
2024/03/24 20:06:33;;;;;;;0.00;0.00;;;;;;;5.82;80.52;99336.03;15300103;28;20089;-52
2024/03/24 20:14:10;;;;;;;0.00;0.00;;;;;;;5.74;81.00;99341.63;15301586;28;20497;-51
2024/03/24 20:21:43;;;;;;;0.00;0.00;;;;;;;5.78;81.46;99333.00;15300449;28;20048;-51
2024/03/24 20:29:19;;;;;;;0.00;0.00;;;;;;;5.66;82.07;99326.69;15300263;28;20075;-54
2024/03/24 20:36:55;;;;;;;0.00;0.00;;;;;;;5.55;83.48;99322.06;15333039;28;20067;-53
2024/03/24 20:44:31;;;;;;;0.00;0.00;;;;;;;5.98;82.54;99311.59;15299658;28;20078;-52
2024/03/24 20:52:12;;;;;;;0.00;0.00;;;;;;;5.63;83.29;99319.94;15295100;28;20082;-50
2024/03/24 20:59:48;;;;;;;0.00;0.00;;;;;;;5.68;82.71;99311.31;15299342;28;20047;-49
2024/03/24 21:07:22;;;;;;;0.00;0.00;;;;;;;5.75;83.21;99309.44;15298991;28;20567;-51
2024/03/24 21:15:04;;;;;;;0.00;0.00;;;;;;;5.84;82.85;99302.84;15298821;28;20317;-50
2024/03/24 21:22:38;;;;;;;0.00;0.00;;;;;;;5.71;83.54;99312.75;15298298;28;20040;-51
2024/03/24 21:30:15;;;;;;;0.30;0.30;;;;;;;5.34;84.24;99308.00;15277018;28;20126;-52
2024/03/24 21:45:43;;;;;;;0.00;0.00;;;;;;;5.46;84.46;99300.19;15295717;28;20075;-48
2024/03/24 21:53:17;;;;;;;0.00;0.00;;;;;;;5.33;86.07;99305.56;15295893;28;20456;-50
2024/03/24 22:00:53;;;;;;;0.00;0.00;;;;;;;5.85;84.81;99301.81;15297091;28;20043;-48
2024/03/24 22:08:28;;;;;;;0.00;0.00;;;;;;;5.62;85.19;99304.19;15296525;28;20051;-50
2024/03/24 22:16:04;;;;;;;0.00;0.00;;;;;;;5.46;86.81;99300.19;15296669;28;20040;-48
2024/03/24 22:23:37;;;;;;;0.00;0.00;;;;;;;5.57;86.42;99310.16;15296332;28;20048;-50
2024/03/24 22:31:12;;;;;;;0.00;0.00;;;;;;;5.01;88.45;99304.66;15296514;28;20046;-52
2024/03/24 22:38:48;;;;;;;1.55;0.70;;;;;;;5.32;88.38;99302.09;15330458;28;20044;-47
2024/03/24 22:46:23;;;;;;;0.00;0.00;;;;;;;5.44;87.38;99304.06;15278350;28;20476;-47
2024/03/24 22:53:56;;;;;;;0.03;0.03;;;;;;;5.25;87.59;99314.59;15295948;28;20044;-49
2024/03/24 23:01:32;;;;;;;0.00;0.00;;;;;;;5.09;88.96;99318.53;15302633;28;20089;-52
2024/03/24 23:09:06;;;;;;;0.65;0.22;;;;;;;5.44;88.11;99314.72;15304210;28;20455;-51
2024/03/24 23:16:43;;;;;;;0.00;0.00;;;;;;;5.21;89.13;99331.19;15303580;28;20043;-48
2024/03/24 23:24:17;;;;;;;0.00;0.00;;;;;;;4.93;90.51;99329.63;15303132;28;20418;-48
2024/03/24 23:31:52;;;;;;;0.00;0.00;;;;;;;5.26;89.15;99331.38;15302360;28;20044;-50
2024/03/24 23:39:26;;;;;;;0.00;0.00;;;;;;;5.24;89.73;99344.06;15336554;28;20519;-49
2024/03/24 23:47:03;;;;;;;0.20;0.20;;;;;;;5.49;88.16;99360.97;15301616;28;20044;-51
2024/03/24 23:54:37;;;;;;;0.00;0.00;;;;;;;5.21;88.49;99360.44;15301119;28;20500;-46
